sensor_id;sensor_type;location;lat;lon;timestamp;pressure;altitude;pressure_sealevel;temperature;humidity
62038;BME280;47991;42.974;12.082;2023-02-16T00:01:57;99103.92;;;3.76;66.60
62038;BME280;47991;42.974;12.082;2023-02-16T00:04:29;99104.78;;;3.74;67.33
62038;BME280;47991;42.974;12.082;2023-02-16T00:06:56;99105.61;;;3.72;67.07
62038;BME280;47991;42.974;12.082;2023-02-16T00:09:24;99101.03;;;3.71;66.79
62038;BME280;47991;42.974;12.082;2023-02-16T00:11:51;99093.75;;;3.74;66.93
62038;BME280;47991;42.974;12.082;2023-02-16T00:14:38;99091.30;;;3.74;67.32
62038;BME280;47991;42.974;12.082;2023-02-16T00:17:05;99086.88;;;3.71;68.17
62038;BME280;47991;42.974;12.082;2023-02-16T00:19:40;99085.74;;;3.68;67.77
62038;BME280;47991;42.974;12.082;2023-02-16T00:22:09;99084.30;;;3.66;68.69
62038;BME280;47991;42.974;12.082;2023-02-16T00:24:37;99081.50;;;3.65;69.06
62038;BME280;47991;42.974;12.082;2023-02-16T00:27:11;99080.83;;;3.67;69.29
62038;BME280;47991;42.974;12.082;2023-02-16T00:29:38;99080.86;;;3.68;68.52
62038;BME280;47991;42.974;12.082;2023-02-16T00:32:09;99081.40;;;3.69;68.82
62038;BME280;47991;42.974;12.082;2023-02-16T00:34:40;99079.23;;;3.74;68.53
62038;BME280;47991;42.974;12.082;2023-02-16T00:45:18;99083.26;;;3.91;70.45
62038;BME280;47991;42.974;12.082;2023-02-16T00:47:50;99082.96;;;3.77;69.84
62038;BME280;47991;42.974;12.082;2023-02-16T00:50:22;99082.65;;;3.70;68.68
62038;BME280;47991;42.974;12.082;2023-02-16T00:52:50;99085.24;;;3.68;69.10
62038;BME280;47991;42.974;12.082;2023-02-16T00:55:19;99090.02;;;3.62;68.94
62038;BME280;47991;42.974;12.082;2023-02-16T00:57:54;99091.85;;;3.58;69.80
62038;BME280;47991;42.974;12.082;2023-02-16T01:00:52;99093.87;;;3.54;70.05
62038;BME280;47991;42.974;12.082;2023-02-16T01:03:23;99091.08;;;3.55;69.43
62038;BME280;47991;42.974;12.082;2023-02-16T01:05:51;99091.66;;;3.58;69.40
62038;BME280;47991;42.974;12.082;2023-02-16T01:08:40;99094.05;;;3.63;71.10
62038;BME280;47991;42.974;12.082;2023-02-16T01:11:27;99090.89;;;3.62;71.15
62038;BME280;47991;42.974;12.082;2023-02-16T01:13:55;99092.28;;;3.62;69.47
62038;BME280;47991;42.974;12.082;2023-02-16T01:16:26;99088.48;;;3.64;69.73
62038;BME280;47991;42.974;12.082;2023-02-16T01:18:59;99094.33;;;3.59;69.63
62038;BME280;47991;42.974;12.082;2023-02-16T01:21:25;99097.27;;;3.58;69.98
62038;BME280;47991;42.974;12.082;2023-02-16T01:23:52;99101.39;;;3.46;73.53
62038;BME280;47991;42.974;12.082;2023-02-16T01:26:20;99098.92;;;3.36;71.40
62038;BME280;47991;42.974;12.082;2023-02-16T01:28:48;99095.74;;;3.36;70.54
62038;BME280;47991;42.974;12.082;2023-02-16T01:31:16;99095.28;;;3.30;70.64
62038;BME280;47991;42.974;12.082;2023-02-16T01:33:43;99099.94;;;3.27;70.87
62038;BME280;47991;42.974;12.082;2023-02-16T01:36:28;99098.02;;;3.21;70.21
62038;BME280;47991;42.974;12.082;2023-02-16T01:38:59;99094.38;;;3.21;70.40
62038;BME280;47991;42.974;12.082;2023-02-16T01:44:37;99094.77;;;3.15;72.52
62038;BME280;47991;42.974;12.082;2023-02-16T01:47:13;99087.92;;;3.14;72.64
62038;BME280;47991;42.974;12.082;2023-02-16T01:49:43;99085.66;;;3.14;73.40
62038;BME280;47991;42.974;12.082;2023-02-16T01:52:33;99083.04;;;3.14;72.49
62038;BME280;47991;42.974;12.082;2023-02-16T01:55:22;99078.59;;;3.18;72.82
62038;BME280;47991;42.974;12.082;2023-02-16T01:57:58;99079.33;;;3.21;70.36
62038;BME280;47991;42.974;12.082;2023-02-16T02:03:26;99076.19;;;3.12;72.21
62038;BME280;47991;42.974;12.082;2023-02-16T02:06:19;99071.17;;;3.07;71.68
62038;BME280;47991;42.974;12.082;2023-02-16T02:14:12;99067.19;;;2.78;71.09
62038;BME280;47991;42.974;12.082;2023-02-16T02:19:19;99062.44;;;2.69;72.39
62038;BME280;47991;42.974;12.082;2023-02-16T02:25:15;99057.62;;;2.65;75.29
62038;BME280;47991;42.974;12.082;2023-02-16T02:27:52;99057.18;;;2.60;73.30
62038;BME280;47991;42.974;12.082;2023-02-16T02:36:21;99048.73;;;2.72;73.46
62038;BME280;47991;42.974;12.082;2023-02-16T02:44:52;99044.77;;;2.83;73.15
62038;BME280;47991;42.974;12.082;2023-02-16T02:47:21;99041.59;;;2.89;72.97
62038;BME280;47991;42.974;12.082;2023-02-16T02:49:50;99041.44;;;2.89;72.38
62038;BME280;47991;42.974;12.082;2023-02-16T02:52:18;99036.45;;;2.78;72.11
62038;BME280;47991;42.974;12.082;2023-02-16T02:54:46;99034.20;;;2.63;73.68
62038;BME280;47991;42.974;12.082;2023-02-16T02:57:42;99035.47;;;2.51;72.78
62038;BME280;47991;42.974;12.082;2023-02-16T03:00:38;99036.50;;;2.43;72.51
62038;BME280;47991;42.974;12.082;2023-02-16T03:06:14;99035.55;;;2.19;75.68
62038;BME280;47991;42.974;12.082;2023-02-16T03:08:45;99033.27;;;2.18;73.25
62038;BME280;47991;42.974;12.082;2023-02-16T03:11:25;99033.23;;;2.23;75.30
62038;BME280;47991;42.974;12.082;2023-02-16T03:14:18;99037.11;;;2.32;75.70
62038;BME280;47991;42.974;12.082;2023-02-16T03:16:49;99035.89;;;2.39;74.33
62038;BME280;47991;42.974;12.082;2023-02-16T03:19:39;99037.52;;;2.41;74.38
62038;BME280;47991;42.974;12.082;2023-02-16T03:22:26;99039.02;;;2.39;73.44
62038;BME280;47991;42.974;12.082;2023-02-16T03:25:13;99037.77;;;2.31;74.41
62038;BME280;47991;42.974;12.082;2023-02-16T03:28:00;99039.95;;;2.27;74.28
62038;BME280;47991;42.974;12.082;2023-02-16T03:30:49;99044.80;;;2.26;74.55
62038;BME280;47991;42.974;12.082;2023-02-16T03:33:17;99048.20;;;2.30;74.14
62038;BME280;47991;42.974;12.082;2023-02-16T03:35:45;99042.40;;;2.28;73.76
62038;BME280;47991;42.974;12.082;2023-02-16T03:38:13;99045.15;;;2.26;73.89
62038;BME280;47991;42.974;12.082;2023-02-16T03:40:42;99047.91;;;2.25;74.81
62038;BME280;47991;42.974;12.082;2023-02-16T03:43:10;99049.27;;;2.23;75.90
62038;BME280;47991;42.974;12.082;2023-02-16T03:45:40;99052.42;;;2.16;75.35
62038;BME280;47991;42.974;12.082;2023-02-16T03:48:08;99052.59;;;2.16;75.29
62038;BME280;47991;42.974;12.082;2023-02-16T03:50:36;99053.07;;;2.15;75.12
62038;BME280;47991;42.974;12.082;2023-02-16T03:53:03;99055.43;;;2.12;75.20
62038;BME280;47991;42.974;12.082;2023-02-16T03:55:36;99053.33;;;2.11;74.91
62038;BME280;47991;42.974;12.082;2023-02-16T03:58:06;99054.73;;;2.18;74.80
62038;BME280;47991;42.974;12.082;2023-02-16T04:00:34;99055.86;;;2.22;75.39
62038;BME280;47991;42.974;12.082;2023-02-16T04:03:03;99057.36;;;2.19;76.20
62038;BME280;47991;42.974;12.082;2023-02-16T04:05:31;99059.81;;;2.12;75.07
62038;BME280;47991;42.974;12.082;2023-02-16T04:07:58;99059.05;;;2.10;74.86
62038;BME280;47991;42.974;12.082;2023-02-16T04:10:25;99059.38;;;2.09;74.95
62038;BME280;47991;42.974;12.082;2023-02-16T04:12:52;99057.38;;;2.13;75.64
62038;BME280;47991;42.974;12.082;2023-02-16T04:15:23;99060.84;;;2.12;75.38
62038;BME280;47991;42.974;12.082;2023-02-16T04:17:52;99062.22;;;2.18;75.37
62038;BME280;47991;42.974;12.082;2023-02-16T04:20:22;99058.98;;;2.21;75.51
62038;BME280;47991;42.974;12.082;2023-02-16T04:22:50;99064.67;;;2.18;75.71
62038;BME280;47991;42.974;12.082;2023-02-16T04:25:18;99066.50;;;2.15;75.55
62038;BME280;47991;42.974;12.082;2023-02-16T04:27:46;99065.54;;;2.11;75.59
62038;BME280;47991;42.974;12.082;2023-02-16T04:30:16;99065.48;;;2.09;75.69
62038;BME280;47991;42.974;12.082;2023-02-16T04:32:44;99065.92;;;1.99;75.49
62038;BME280;47991;42.974;12.082;2023-02-16T04:35:11;99067.47;;;1.92;75.74
62038;BME280;47991;42.974;12.082;2023-02-16T04:37:38;99073.08;;;1.87;76.22
62038;BME280;47991;42.974;12.082;2023-02-16T04:40:06;99069.76;;;1.80;76.81
62038;BME280;47991;42.974;12.082;2023-02-16T04:42:34;99067.83;;;1.80;76.08
62038;BME280;47991;42.974;12.082;2023-02-16T04:45:01;99068.85;;;1.79;76.46
62038;BME280;47991;42.974;12.082;2023-02-16T04:47:27;99070.20;;;1.77;76.47
62038;BME280;47991;42.974;12.082;2023-02-16T04:49:54;99071.58;;;1.70;76.58
62038;BME280;47991;42.974;12.082;2023-02-16T04:52:21;99068.08;;;1.69;76.78
62038;BME280;47991;42.974;12.082;2023-02-16T04:54:48;99070.21;;;1.71;76.90
62038;BME280;47991;42.974;12.082;2023-02-16T04:57:16;99069.24;;;1.68;76.78
62038;BME280;47991;42.974;12.082;2023-02-16T04:59:44;99068.39;;;1.55;76.16
62038;BME280;47991;42.974;12.082;2023-02-16T05:02:11;99066.67;;;1.44;76.72
62038;BME280;47991;42.974;12.082;2023-02-16T05:04:38;99068.24;;;1.39;76.47
62038;BME280;47991;42.974;12.082;2023-02-16T05:07:05;99073.43;;;1.31;77.19
62038;BME280;47991;42.974;12.082;2023-02-16T05:09:32;99074.38;;;1.28;76.61
62038;BME280;47991;42.974;12.082;2023-02-16T05:11:59;99076.56;;;1.25;77.29
62038;BME280;47991;42.974;12.082;2023-02-16T05:14:45;99080.27;;;1.21;76.72
62038;BME280;47991;42.974;12.082;2023-02-16T05:19:45;99083.52;;;1.07;75.88
62038;BME280;47991;42.974;12.082;2023-02-16T05:22:13;99085.80;;;1.02;76.10
62038;BME280;47991;42.974;12.082;2023-02-16T05:24:40;99087.15;;;1.01;76.27
62038;BME280;47991;42.974;12.082;2023-02-16T05:27:13;99086.77;;;1.05;76.07
62038;BME280;47991;42.974;12.082;2023-02-16T05:29:40;99086.45;;;1.06;75.93
62038;BME280;47991;42.974;12.082;2023-02-16T05:32:07;99084.09;;;1.03;76.55
62038;BME280;47991;42.974;12.082;2023-02-16T05:34:35;99085.77;;;1.01;76.57
62038;BME280;47991;42.974;12.082;2023-02-16T05:37:02;99086.24;;;0.99;76.82
62038;BME280;47991;42.974;12.082;2023-02-16T05:39:29;99090.19;;;1.03;76.75
62038;BME280;47991;42.974;12.082;2023-02-16T05:41:56;99100.05;;;1.07;76.41
62038;BME280;47991;42.974;12.082;2023-02-16T05:44:23;99099.95;;;1.09;76.44
62038;BME280;47991;42.974;12.082;2023-02-16T05:46:50;99102.26;;;1.17;76.14
62038;BME280;47991;42.974;12.082;2023-02-16T05:49:17;99101.88;;;1.15;76.03
62038;BME280;47991;42.974;12.082;2023-02-16T05:51:44;99105.23;;;1.00;76.04
62038;BME280;47991;42.974;12.082;2023-02-16T05:54:11;99104.89;;;0.88;76.09
62038;BME280;47991;42.974;12.082;2023-02-16T05:56:49;99103.13;;;0.78;76.50
62038;BME280;47991;42.974;12.082;2023-02-16T05:59:16;99105.09;;;0.68;77.10
62038;BME280;47991;42.974;12.082;2023-02-16T06:01:43;99106.25;;;0.61;76.20
62038;BME280;47991;42.974;12.082;2023-02-16T06:04:13;99108.52;;;0.56;76.98
62038;BME280;47991;42.974;12.082;2023-02-16T06:06:40;99114.49;;;0.58;76.37
62038;BME280;47991;42.974;12.082;2023-02-16T06:09:08;99113.92;;;0.56;77.16
62038;BME280;47991;42.974;12.082;2023-02-16T06:11:35;99112.69;;;0.50;77.19
62038;BME280;47991;42.974;12.082;2023-02-16T06:16:36;99108.16;;;0.50;79.21
62038;BME280;47991;42.974;12.082;2023-02-16T06:19:03;99112.93;;;0.52;78.65
62038;BME280;47991;42.974;12.082;2023-02-16T06:21:31;99109.11;;;0.52;77.71
62038;BME280;47991;42.974;12.082;2023-02-16T06:23:58;99115.43;;;0.60;77.74
62038;BME280;47991;42.974;12.082;2023-02-16T06:26:26;99117.63;;;0.58;77.82
62038;BME280;47991;42.974;12.082;2023-02-16T06:28:53;99117.41;;;0.61;78.01
62038;BME280;47991;42.974;12.082;2023-02-16T06:31:20;99122.69;;;0.68;77.75
62038;BME280;47991;42.974;12.082;2023-02-16T06:33:48;99127.00;;;0.78;79.04
62038;BME280;47991;42.974;12.082;2023-02-16T06:36:16;99124.73;;;0.78;78.95
62038;BME280;47991;42.974;12.082;2023-02-16T06:38:44;99125.27;;;0.83;77.76
62038;BME280;47991;42.974;12.082;2023-02-16T06:41:11;99125.99;;;0.96;77.40
62038;BME280;47991;42.974;12.082;2023-02-16T06:43:38;99126.00;;;1.24;77.66
62038;BME280;47991;42.974;12.082;2023-02-16T06:46:05;99129.80;;;1.76;76.88
62038;BME280;47991;42.974;12.082;2023-02-16T06:48:32;99126.61;;;2.18;75.94
62038;BME280;47991;42.974;12.082;2023-02-16T06:50:59;99129.05;;;2.44;75.12
62038;BME280;47991;42.974;12.082;2023-02-16T06:53:26;99133.88;;;2.77;75.13
62038;BME280;47991;42.974;12.082;2023-02-16T06:55:53;99136.16;;;3.37;74.22
62038;BME280;47991;42.974;12.082;2023-02-16T06:58:20;99133.36;;;3.86;73.73
62038;BME280;47991;42.974;12.082;2023-02-16T07:00:47;99135.51;;;4.16;73.80
62038;BME280;47991;42.974;12.082;2023-02-16T07:03:14;99135.61;;;4.21;72.21
62038;BME280;47991;42.974;12.082;2023-02-16T07:05:41;99133.09;;;4.36;72.21
62038;BME280;47991;42.974;12.082;2023-02-16T07:08:09;99135.82;;;4.52;71.65
62038;BME280;47991;42.974;12.082;2023-02-16T07:10:36;99137.56;;;4.82;71.42
62038;BME280;47991;42.974;12.082;2023-02-16T07:13:04;99136.46;;;6.18;69.25
62038;BME280;47991;42.974;12.082;2023-02-16T07:15:31;99131.90;;;7.64;65.77
62038;BME280;47991;42.974;12.082;2023-02-16T07:17:57;99137.07;;;7.45;64.93
62038;BME280;47991;42.974;12.082;2023-02-16T07:20:24;99143.46;;;7.02;64.58
62038;BME280;47991;42.974;12.082;2023-02-16T07:22:53;99144.69;;;6.81;66.13
62038;BME280;47991;42.974;12.082;2023-02-16T07:25:20;99148.48;;;6.55;65.91
62038;BME280;47991;42.974;12.082;2023-02-16T07:27:47;99146.75;;;6.40;66.65
62038;BME280;47991;42.974;12.082;2023-02-16T07:30:15;99154.45;;;6.22;67.06
62038;BME280;47991;42.974;12.082;2023-02-16T07:32:42;99153.27;;;6.10;66.89
62038;BME280;47991;42.974;12.082;2023-02-16T07:35:09;99153.91;;;5.79;67.80
62038;BME280;47991;42.974;12.082;2023-02-16T07:37:36;99160.94;;;5.80;68.93
62038;BME280;47991;42.974;12.082;2023-02-16T07:40:04;99157.25;;;5.92;68.62
62038;BME280;47991;42.974;12.082;2023-02-16T07:42:32;99158.80;;;6.02;68.98
62038;BME280;47991;42.974;12.082;2023-02-16T07:44:59;99156.27;;;6.10;68.83
62038;BME280;47991;42.974;12.082;2023-02-16T07:47:26;99153.59;;;6.23;69.02
62038;BME280;47991;42.974;12.082;2023-02-16T07:49:53;99156.23;;;6.38;68.86
62038;BME280;47991;42.974;12.082;2023-02-16T07:52:20;99154.85;;;6.58;68.40
62038;BME280;47991;42.974;12.082;2023-02-16T07:54:47;99157.18;;;6.46;68.15
62038;BME280;47991;42.974;12.082;2023-02-16T07:57:14;99158.20;;;6.26;69.42
62038;BME280;47991;42.974;12.082;2023-02-16T07:59:41;99157.45;;;6.38;69.44
62038;BME280;47991;42.974;12.082;2023-02-16T08:02:14;99162.74;;;6.57;69.28
62038;BME280;47991;42.974;12.082;2023-02-16T08:04:42;99162.20;;;6.73;68.48
62038;BME280;47991;42.974;12.082;2023-02-16T08:07:15;99166.73;;;6.51;69.13
62038;BME280;47991;42.974;12.082;2023-02-16T08:09:43;99171.06;;;6.46;69.38
62038;BME280;47991;42.974;12.082;2023-02-16T08:12:11;99172.79;;;6.27;70.08
62038;BME280;47991;42.974;12.082;2023-02-16T08:14:38;99175.58;;;6.11;70.16
62038;BME280;47991;42.974;12.082;2023-02-16T08:17:06;99177.13;;;5.96;70.54
62038;BME280;47991;42.974;12.082;2023-02-16T08:19:33;99177.80;;;5.93;70.92
62038;BME280;47991;42.974;12.082;2023-02-16T08:22:00;99183.36;;;5.76;70.82
62038;BME280;47991;42.974;12.082;2023-02-16T08:24:30;99182.52;;;5.92;70.60
62038;BME280;47991;42.974;12.082;2023-02-16T08:27:01;99184.48;;;6.07;70.05
62038;BME280;47991;42.974;12.082;2023-02-16T08:29:30;99183.91;;;6.17;69.75
62038;BME280;47991;42.974;12.082;2023-02-16T08:35:32;99185.74;;;6.09;70.29
62038;BME280;47991;42.974;12.082;2023-02-16T08:38:39;99188.57;;;6.41;70.07
62038;BME280;47991;42.974;12.082;2023-02-16T08:41:09;99186.23;;;6.69;68.60
62038;BME280;47991;42.974;12.082;2023-02-16T08:43:36;99188.83;;;7.01;67.96
62038;BME280;47991;42.974;12.082;2023-02-16T08:46:05;99191.64;;;7.25;67.42
62038;BME280;47991;42.974;12.082;2023-02-16T08:48:34;99188.65;;;7.48;67.27
62038;BME280;47991;42.974;12.082;2023-02-16T08:51:02;99194.44;;;7.72;66.25
62038;BME280;47991;42.974;12.082;2023-02-16T08:53:48;99196.81;;;7.86;65.22
62038;BME280;47991;42.974;12.082;2023-02-16T08:56:15;99197.35;;;7.89;64.72
62038;BME280;47991;42.974;12.082;2023-02-16T08:58:42;99203.31;;;7.83;65.00
62038;BME280;47991;42.974;12.082;2023-02-16T09:01:10;99207.98;;;7.71;65.99
62038;BME280;47991;42.974;12.082;2023-02-16T09:03:40;99210.09;;;7.71;66.04
62038;BME280;47991;42.974;12.082;2023-02-16T09:06:10;99217.05;;;7.86;65.43
62038;BME280;47991;42.974;12.082;2023-02-16T09:08:38;99211.33;;;8.39;64.63
62038;BME280;47991;42.974;12.082;2023-02-16T09:11:08;99210.09;;;9.12;63.20
62038;BME280;47991;42.974;12.082;2023-02-16T09:13:37;99212.02;;;8.98;63.23
62038;BME280;47991;42.974;12.082;2023-02-16T09:16:08;99213.05;;;8.77;66.81
62038;BME280;47991;42.974;12.082;2023-02-16T09:18:37;99215.72;;;8.92;66.94
62038;BME280;47991;42.974;12.082;2023-02-16T09:21:07;99215.73;;;9.17;66.94
62038;BME280;47991;42.974;12.082;2023-02-16T09:23:38;99214.52;;;9.37;66.51
62038;BME280;47991;42.974;12.082;2023-02-16T09:26:41;99210.81;;;9.34;66.09
62038;BME280;47991;42.974;12.082;2023-02-16T09:29:27;99219.41;;;8.84;67.75
62038;BME280;47991;42.974;12.082;2023-02-16T09:34:40;99224.79;;;8.53;69.28
62038;BME280;47991;42.974;12.082;2023-02-16T09:39:56;99221.20;;;9.01;67.86
62038;BME280;47991;42.974;12.082;2023-02-16T09:45:14;99224.22;;;9.16;67.80
62038;BME280;47991;42.974;12.082;2023-02-16T09:47:45;99223.52;;;9.46;67.47
62038;BME280;47991;42.974;12.082;2023-02-16T09:50:20;99226.69;;;9.50;66.85
62038;BME280;47991;42.974;12.082;2023-02-16T09:52:56;99227.05;;;9.44;67.23
62038;BME280;47991;42.974;12.082;2023-02-16T09:55:27;99227.92;;;9.40;66.54
62038;BME280;47991;42.974;12.082;2023-02-16T09:58:11;99224.05;;;9.32;67.32
62038;BME280;47991;42.974;12.082;2023-02-16T10:01:34;99227.56;;;9.21;67.77
62038;BME280;47991;42.974;12.082;2023-02-16T10:10:03;99226.69;;;9.19;67.01
62038;BME280;47991;42.974;12.082;2023-02-16T10:12:44;99223.86;;;9.29;67.27
62038;BME280;47991;42.974;12.082;2023-02-16T10:15:31;99228.64;;;9.38;66.94
62038;BME280;47991;42.974;12.082;2023-02-16T10:18:39;99234.98;;;9.25;67.02
62038;BME280;47991;42.974;12.082;2023-02-16T10:21:15;99234.63;;;9.39;66.41
62038;BME280;47991;42.974;12.082;2023-02-16T10:23:51;99232.33;;;9.60;65.48
62038;BME280;47991;42.974;12.082;2023-02-16T10:27:02;99231.41;;;9.81;65.44
62038;BME280;47991;42.974;12.082;2023-02-16T10:29:52;99229.39;;;10.13;64.06
62038;BME280;47991;42.974;12.082;2023-02-16T10:32:55;99226.69;;;10.30;63.83
62038;BME280;47991;42.974;12.082;2023-02-16T10:35:46;99222.81;;;10.33;63.95
62038;BME280;47991;42.974;12.082;2023-02-16T10:38:34;99210.28;;;10.66;63.35
62038;BME280;47991;42.974;12.082;2023-02-16T10:44:13;99214.88;;;10.66;62.06
62038;BME280;47991;42.974;12.082;2023-02-16T10:46:45;99212.30;;;10.85;62.51
62038;BME280;47991;42.974;12.082;2023-02-16T10:49:14;99210.20;;;11.08;61.37
62038;BME280;47991;42.974;12.082;2023-02-16T10:51:46;99212.27;;;11.14;61.39
62038;BME280;47991;42.974;12.082;2023-02-16T10:54:22;99205.60;;;11.07;61.29
62038;BME280;47991;42.974;12.082;2023-02-16T10:56:56;99208.38;;;11.15;61.02
62038;BME280;47991;42.974;12.082;2023-02-16T10:59:45;99206.09;;;11.13;60.90
62038;BME280;47991;42.974;12.082;2023-02-16T11:02:19;99208.95;;;11.09;60.91
62038;BME280;47991;42.974;12.082;2023-02-16T11:04:50;99203.76;;;10.92;62.08
62038;BME280;47991;42.974;12.082;2023-02-16T11:07:23;99202.19;;;11.13;61.40
62038;BME280;47991;42.974;12.082;2023-02-16T11:09:52;99199.52;;;11.36;61.03
62038;BME280;47991;42.974;12.082;2023-02-16T11:12:29;99197.82;;;11.29;60.86
62038;BME280;47991;42.974;12.082;2023-02-16T11:17:30;99195.41;;;10.69;62.23
62038;BME280;47991;42.974;12.082;2023-02-16T11:20:04;99190.25;;;10.75;62.56
62038;BME280;47991;42.974;12.082;2023-02-16T11:22:38;99183.46;;;11.09;61.93
62038;BME280;47991;42.974;12.082;2023-02-16T11:27:57;99184.56;;;11.26;60.99
62038;BME280;47991;42.974;12.082;2023-02-16T11:30:34;99185.80;;;11.48;59.88
62038;BME280;47991;42.974;12.082;2023-02-16T11:33:03;99181.42;;;11.43;60.20
62038;BME280;47991;42.974;12.082;2023-02-16T11:35:41;99179.55;;;11.53;60.34
62038;BME280;47991;42.974;12.082;2023-02-16T11:38:43;99174.37;;;11.74;59.86
62038;BME280;47991;42.974;12.082;2023-02-16T11:41:09;99173.58;;;11.82;59.60
62038;BME280;47991;42.974;12.082;2023-02-16T11:43:37;99172.71;;;11.98;58.51
62038;BME280;47991;42.974;12.082;2023-02-16T11:46:15;99164.16;;;12.32;58.42
62038;BME280;47991;42.974;12.082;2023-02-16T11:49:26;99162.46;;;13.23;56.61
62038;BME280;47991;42.974;12.082;2023-02-16T11:51:54;99156.07;;;13.93;54.39
62038;BME280;47991;42.974;12.082;2023-02-16T11:54:50;99162.83;;;13.54;54.19
62038;BME280;47991;42.974;12.082;2023-02-16T11:57:27;99159.14;;;13.53;54.71
62038;BME280;47991;42.974;12.082;2023-02-16T11:59:56;99151.81;;;13.64;54.68
62038;BME280;47991;42.974;12.082;2023-02-16T12:09:10;99142.05;;;13.44;53.97
62038;BME280;47991;42.974;12.082;2023-02-16T12:21:36;99135.08;;;13.56;54.54
62038;BME280;47991;42.974;12.082;2023-02-16T12:46:31;99105.73;;;13.76;53.80
62038;BME280;47991;42.974;12.082;2023-02-16T12:49:21;99098.01;;;13.63;54.38
62038;BME280;47991;42.974;12.082;2023-02-16T12:51:55;99098.39;;;13.79;54.09
62038;BME280;47991;42.974;12.082;2023-02-16T12:54:35;99097.46;;;13.44;54.57
62038;BME280;47991;42.974;12.082;2023-02-16T12:57:11;99092.82;;;13.46;54.75
62038;BME280;47991;42.974;12.082;2023-02-16T13:02:54;99094.34;;;13.19;54.90
62038;BME280;47991;42.974;12.082;2023-02-16T13:05:26;99090.95;;;13.20;54.97
62038;BME280;47991;42.974;12.082;2023-02-16T13:08:07;99091.05;;;13.25;54.85
62038;BME280;47991;42.974;12.082;2023-02-16T13:11:06;99090.86;;;13.25;54.95
62038;BME280;47991;42.974;12.082;2023-02-16T13:13:38;99090.38;;;13.12;55.61
62038;BME280;47991;42.974;12.082;2023-02-16T13:16:21;99091.40;;;13.24;55.82
62038;BME280;47991;42.974;12.082;2023-02-16T13:18:53;99093.70;;;13.25;55.38
62038;BME280;47991;42.974;12.082;2023-02-16T13:22:04;99087.98;;;13.26;55.32
62038;BME280;47991;42.974;12.082;2023-02-16T13:36:26;99084.86;;;13.03;55.76
62038;BME280;47991;42.974;12.082;2023-02-16T13:45:04;99095.75;;;12.42;57.25
62038;BME280;47991;42.974;12.082;2023-02-16T13:47:39;99100.64;;;12.22;57.48
62038;BME280;47991;42.974;12.082;2023-02-16T13:50:26;99095.21;;;11.86;58.53
62038;BME280;47991;42.974;12.082;2023-02-16T13:53:19;99093.11;;;12.02;58.26
62038;BME280;47991;42.974;12.082;2023-02-16T13:56:33;99091.72;;;12.13;58.91
62038;BME280;47991;42.974;12.082;2023-02-16T14:01:52;99090.64;;;12.14;59.45
62038;BME280;47991;42.974;12.082;2023-02-16T14:09:48;99098.64;;;11.99;59.51
62038;BME280;47991;42.974;12.082;2023-02-16T14:12:17;99098.13;;;11.97;59.50
62038;BME280;47991;42.974;12.082;2023-02-16T14:37:56;99109.98;;;10.69;63.09
62038;BME280;47991;42.974;12.082;2023-02-16T14:55:26;99114.80;;;10.63;63.94
62038;BME280;47991;42.974;12.082;2023-02-16T15:00:47;99113.27;;;10.79;63.26
62038;BME280;47991;42.974;12.082;2023-02-16T15:03:40;99108.48;;;10.81;63.52
62038;BME280;47991;42.974;12.082;2023-02-16T15:06:20;99110.74;;;10.87;63.00
62038;BME280;47991;42.974;12.082;2023-02-16T15:09:04;99110.35;;;10.89;64.06
62038;BME280;47991;42.974;12.082;2023-02-16T15:11:53;99106.39;;;10.99;63.17
62038;BME280;47991;42.974;12.082;2023-02-16T15:14:55;99104.92;;;11.03;64.00
62038;BME280;47991;42.974;12.082;2023-02-16T15:17:46;99103.82;;;11.10;63.55
62038;BME280;47991;42.974;12.082;2023-02-16T15:20:27;99104.27;;;11.17;62.50
62038;BME280;47991;42.974;12.082;2023-02-16T15:22:58;99101.58;;;11.21;62.90
62038;BME280;47991;42.974;12.082;2023-02-16T15:30:47;99096.91;;;11.29;62.65
62038;BME280;47991;42.974;12.082;2023-02-16T15:33:39;99100.05;;;11.32;62.59
62038;BME280;47991;42.974;12.082;2023-02-16T15:36:10;99097.06;;;11.32;62.59
62038;BME280;47991;42.974;12.082;2023-02-16T15:39:01;99101.32;;;11.30;63.06
62038;BME280;47991;42.974;12.082;2023-02-16T15:41:48;99105.45;;;11.24;62.60
62038;BME280;47991;42.974;12.082;2023-02-16T15:44:35;99109.52;;;11.25;62.60
62038;BME280;47991;42.974;12.082;2023-02-16T15:47:09;99112.59;;;11.18;63.30
62038;BME280;47991;42.974;12.082;2023-02-16T15:49:36;99111.48;;;11.03;63.64
62038;BME280;47991;42.974;12.082;2023-02-16T15:55:05;99113.98;;;10.79;63.66
62038;BME280;47991;42.974;12.082;2023-02-16T15:58:09;99110.90;;;10.66;64.60
62038;BME280;47991;42.974;12.082;2023-02-16T16:00:40;99106.97;;;10.46;64.94
62038;BME280;47991;42.974;12.082;2023-02-16T16:03:26;99110.41;;;10.27;66.33
62038;BME280;47991;42.974;12.082;2023-02-16T16:06:33;99111.38;;;10.08;66.39
62038;BME280;47991;42.974;12.082;2023-02-16T16:09:26;99113.88;;;10.03;66.01
62038;BME280;47991;42.974;12.082;2023-02-16T16:11:58;99116.91;;;9.91;66.46
62038;BME280;47991;42.974;12.082;2023-02-16T16:14:27;99117.86;;;9.76;67.04
62038;BME280;47991;42.974;12.082;2023-02-16T16:16:55;99121.30;;;9.51;68.71
62038;BME280;47991;42.974;12.082;2023-02-16T16:19:32;99121.15;;;9.38;68.46
62038;BME280;47991;42.974;12.082;2023-02-16T16:22:37;99119.75;;;9.25;69.13
62038;BME280;47991;42.974;12.082;2023-02-16T16:25:38;99121.17;;;9.10;69.84
62038;BME280;47991;42.974;12.082;2023-02-16T16:28:07;99122.59;;;9.02;69.76
62038;BME280;47991;42.974;12.082;2023-02-16T16:30:38;99123.30;;;8.89;71.27
62038;BME280;47991;42.974;12.082;2023-02-16T16:33:23;99124.55;;;8.85;70.69
62038;BME280;47991;42.974;12.082;2023-02-16T16:35:50;99128.59;;;8.81;70.32
62038;BME280;47991;42.974;12.082;2023-02-16T16:43:45;99120.81;;;8.67;71.22
62038;BME280;47991;42.974;12.082;2023-02-16T16:49:58;99119.75;;;8.57;71.12
62038;BME280;47991;42.974;12.082;2023-02-16T16:55:30;99118.18;;;8.68;68.13